createdAt,value
2023-09-20T00:00:12.737Z,18.12
2023-09-20T00:02:46.476Z,18.15
2023-09-20T00:05:16.554Z,18.21
2023-09-20T00:07:47.714Z,18.25
2023-09-20T00:10:16.693Z,18.21
2023-09-20T00:12:45.551Z,18.16
2023-09-20T00:15:14.245Z,18.17
2023-09-20T00:17:42.779Z,18.13
2023-09-20T00:20:14.214Z,18.19
2023-09-20T00:22:47.483Z,18.12
2023-09-20T00:25:17.197Z,18.07
2023-09-20T00:27:47.476Z,18.11
2023-09-20T00:30:19.259Z,18.18
2023-09-20T00:32:48.439Z,18.17
2023-09-20T00:35:18.900Z,18.10
2023-09-20T00:37:52.247Z,18.17
2023-09-20T00:40:22.923Z,18.11
2023-09-20T00:42:52.864Z,18.08
2023-09-20T00:45:22.646Z,17.90
2023-09-20T00:47:57.254Z,17.95
2023-09-20T00:50:29.660Z,17.96
2023-09-20T00:53:00.888Z,18.04
2023-09-20T00:55:31.688Z,17.99
2023-09-20T00:58:05.412Z,18.02
2023-09-20T01:00:35.258Z,18.02
2023-09-20T01:03:04.538Z,18.02
2023-09-20T01:05:36.072Z,18.02
2023-09-20T01:08:07.463Z,18.06
2023-09-20T01:10:38.280Z,18.02
2023-09-20T01:13:10.081Z,18.15
2023-09-20T01:15:39.378Z,18.03
2023-09-20T01:18:09.738Z,18.14
2023-09-20T01:20:41.443Z,18.21
2023-09-20T01:23:12.048Z,18.12
2023-09-20T01:25:44.414Z,18.17
2023-09-20T01:28:14.155Z,18.07
2023-09-20T01:30:44.050Z,18.11
2023-09-20T01:33:14.702Z,18.01
2023-09-20T01:35:46.694Z,18.13
2023-09-20T01:38:16.661Z,18.02
2023-09-20T01:40:45.128Z,18.09
2023-09-20T01:43:15.267Z,18.09
2023-09-20T01:45:44.934Z,18.08
2023-09-20T01:48:14.143Z,18.11
2023-09-20T01:50:45.452Z,18.10
2023-09-20T01:53:16.209Z,17.99
2023-09-20T01:55:47.513Z,18.08
2023-09-20T01:58:18.275Z,18.04
2023-09-20T02:00:51.836Z,18.08
2023-09-20T02:03:21.497Z,18.03
2023-09-20T02:05:51.425Z,18.11
2023-09-20T02:08:20.902Z,18.07
2023-09-20T02:10:50.901Z,18.08
2023-09-20T02:13:20.370Z,18.16
2023-09-20T02:15:49.246Z,18.22
2023-09-20T02:18:17.831Z,18.20
2023-09-20T02:20:47.633Z,18.16
2023-09-20T02:26:40.881Z,18.23
2023-09-20T02:32:20.165Z,18.11
2023-09-20T02:35:50.137Z,18.15
2023-09-20T02:39:01.317Z,18.14
2023-09-20T02:42:05.732Z,18.13
2023-09-20T02:51:35.079Z,18.10
2023-09-20T03:08:03.448Z,18.08
2023-09-20T03:23:21.940Z,18.14
2023-09-20T03:27:28.972Z,18.23
2023-09-20T03:53:42.418Z,18.14
2023-09-20T03:55:10.398Z,18.21
2023-09-20T04:02:32.038Z,18.17
2023-09-20T04:17:28.799Z,18.25
2023-09-20T04:24:25.236Z,18.30
2023-09-20T04:34:41.288Z,18.28
2023-09-20T04:38:10.353Z,18.29
2023-09-20T04:38:21.998Z,18.30
2023-09-20T04:44:34.098Z,18.42
2023-09-20T04:47:18.422Z,18.20
2023-09-20T04:50:03.716Z,18.21
2023-09-20T04:52:46.138Z,18.28
2023-09-20T06:22:32.940Z,18.27
2023-09-20T06:25:02.723Z,18.32
2023-09-20T06:27:31.944Z,18.36
2023-09-20T06:30:00.320Z,18.32
2023-09-20T06:32:31.684Z,18.38
2023-09-20T06:35:00.959Z,18.36
2023-09-20T06:37:29.291Z,18.42
2023-09-20T06:40:01.045Z,18.47
2023-09-20T06:42:31.295Z,18.42
2023-09-20T06:44:59.889Z,18.43
2023-09-20T06:47:28.226Z,18.47
2023-09-20T06:49:58.584Z,18.52
2023-09-20T06:52:27.391Z,18.41
2023-09-20T06:54:55.648Z,18.41
2023-09-20T06:57:26.154Z,18.43
2023-09-20T06:59:55.646Z,18.50
2023-09-20T07:02:25.761Z,18.57
2023-09-20T07:04:55.767Z,18.53
2023-09-20T07:07:26.422Z,18.49
2023-09-20T07:09:54.632Z,18.53
2023-09-20T07:12:25.574Z,18.65
2023-09-20T07:14:55.393Z,18.68
2023-09-20T07:17:23.682Z,18.64
2023-09-20T07:19:53.791Z,18.71
2023-09-20T07:22:23.284Z,18.64
2023-09-20T07:24:55.953Z,18.60
2023-09-20T07:27:25.832Z,18.73
2023-09-20T07:29:54.151Z,18.83
2023-09-20T07:32:22.662Z,18.88
2023-09-20T07:34:59.076Z,18.94
2023-09-20T07:37:27.593Z,18.88
2023-09-20T07:39:55.841Z,18.92
2023-09-20T07:42:25.636Z,18.91
2023-09-20T07:44:53.951Z,18.83
2023-09-20T07:47:22.636Z,18.79
2023-09-20T07:49:51.574Z,18.78
2023-09-20T07:52:19.900Z,18.81
2023-09-20T07:54:48.770Z,18.97
2023-09-20T07:57:17.876Z,18.87
2023-09-20T07:59:47.639Z,18.90
2023-09-20T08:02:19.267Z,19.03
2023-09-20T08:04:47.941Z,19.15
2023-09-20T08:07:16.298Z,19.15
2023-09-20T08:09:46.032Z,19.33
2023-09-20T08:12:14.415Z,19.33
2023-09-20T08:14:42.789Z,19.29
2023-09-20T08:17:29.964Z,19.27
2023-09-20T08:19:59.567Z,19.25
2023-09-20T08:22:41.751Z,19.14
2023-09-20T08:25:28.174Z,19.03
2023-09-20T08:28:13.661Z,19.17
2023-09-20T08:30:59.738Z,19.10
2023-09-20T08:33:47.989Z,19.16
2023-09-20T08:36:33.948Z,19.27
2023-09-20T08:39:32.399Z,19.18
2023-09-20T08:42:19.728Z,19.20
2023-09-20T08:45:12.770Z,19.16
2023-09-20T08:48:00.449Z,19.08
2023-09-20T08:50:52.700Z,19.15
2023-09-20T08:53:38.741Z,19.21
2023-09-20T08:56:24.743Z,19.16
2023-09-20T08:59:11.028Z,19.17
2023-09-20T09:01:46.081Z,19.06
2023-09-20T09:04:19.957Z,19.09
2023-09-20T09:06:49.988Z,19.10
2023-09-20T09:09:18.440Z,19.20
2023-09-20T09:11:47.945Z,19.24
2023-09-20T09:14:16.308Z,19.08
2023-09-20T09:16:44.766Z,19.05
2023-09-20T09:19:13.163Z,19.00
2023-09-20T09:21:41.702Z,18.78
2023-09-20T09:24:12.697Z,18.70
2023-09-20T09:26:41.461Z,18.72
2023-09-20T09:29:10.976Z,18.62
2023-09-20T09:31:39.691Z,18.62
2023-09-20T09:34:09.392Z,18.49
2023-09-20T09:36:40.138Z,18.41
2023-09-20T09:39:32.020Z,18.35
2023-09-20T09:42:04.539Z,18.35
2023-09-20T09:44:49.902Z,18.34
2023-09-20T09:47:20.269Z,18.40
2023-09-20T09:49:50.290Z,18.40
2023-09-20T09:52:19.396Z,18.45
2023-09-20T09:54:49.732Z,18.52
2023-09-20T09:57:19.703Z,18.58
2023-09-20T09:59:48.550Z,18.57
2023-09-20T10:02:19.043Z,18.52
2023-09-20T10:04:52.986Z,18.58
2023-09-20T10:07:25.044Z,18.54
2023-09-20T10:09:59.083Z,18.43
2023-09-20T10:12:28.134Z,18.51
2023-09-20T10:14:57.475Z,18.49
2023-09-20T10:17:31.885Z,18.49
2023-09-20T10:20:00.256Z,18.58
2023-09-20T10:22:28.574Z,18.57
2023-09-20T10:25:02.032Z,18.55
2023-09-20T10:27:31.605Z,18.40
2023-09-20T10:30:03.954Z,18.36
2023-09-20T10:32:36.847Z,18.30
2023-09-20T10:35:22.697Z,18.19
2023-09-20T10:38:24.303Z,18.00
2023-09-20T10:41:04.888Z,17.91
2023-09-20T10:43:53.013Z,17.90
2023-09-20T10:46:23.930Z,17.87
2023-09-20T10:48:53.683Z,17.86
2023-09-20T10:51:50.303Z,17.82
2023-09-20T10:54:23.900Z,17.82
2023-09-20T10:57:13.260Z,18.00
2023-09-20T10:59:45.528Z,17.92
2023-09-20T11:02:18.216Z,17.87
2023-09-20T11:04:48.230Z,17.89
2023-09-20T11:07:16.814Z,17.98
2023-09-20T11:09:47.590Z,18.10
2023-09-20T11:12:18.087Z,17.97
2023-09-20T11:14:49.483Z,17.99
2023-09-20T11:17:20.231Z,17.90
2023-09-20T11:19:49.906Z,17.98
2023-09-20T11:22:19.897Z,18.01
2023-09-20T11:24:48.136Z,18.04
2023-09-20T11:27:18.487Z,18.04
2023-09-20T11:29:46.838Z,18.07
2023-09-20T11:32:16.638Z,18.15
2023-09-20T11:34:46.367Z,18.14
2023-09-20T11:37:20.094Z,18.10
2023-09-20T11:39:49.011Z,18.10
2023-09-20T11:42:29.654Z,18.16
2023-09-20T11:45:11.611Z,18.17
2023-09-20T11:47:49.858Z,18.34
2023-09-20T11:50:18.376Z,18.31
2023-09-20T11:52:48.724Z,18.33
2023-09-20T11:55:18.023Z,18.47
2023-09-20T11:57:48.213Z,18.52
2023-09-20T12:00:19.225Z,18.58
2023-09-20T12:02:48.885Z,18.57
2023-09-20T12:05:20.767Z,18.54
2023-09-20T12:07:58.131Z,18.38
2023-09-20T12:10:27.840Z,18.32
2023-09-20T12:12:58.307Z,18.21
2023-09-20T12:15:27.450Z,18.27
2023-09-20T12:17:58.256Z,18.26
2023-09-20T12:20:29.009Z,18.34
2023-09-20T12:23:02.889Z,18.29
2023-09-20T12:25:32.607Z,18.33
2023-09-20T12:28:02.522Z,18.18
2023-09-20T12:30:31.084Z,18.16
2023-09-20T12:33:02.129Z,18.01
2023-09-20T12:35:32.138Z,18.01
2023-09-20T12:38:02.882Z,18.11
2023-09-20T12:40:31.236Z,18.02
2023-09-20T12:43:03.004Z,18.11
2023-09-20T12:45:31.776Z,18.11
2023-09-20T12:48:00.170Z,18.14
2023-09-20T12:50:34.215Z,18.10
2023-09-20T12:53:02.564Z,18.18
2023-09-20T12:55:32.310Z,18.18
2023-09-20T12:58:02.022Z,18.25
2023-09-20T13:00:45.652Z,18.25
2023-09-20T13:03:15.484Z,18.25
2023-09-20T13:05:47.728Z,18.31
2023-09-20T13:08:19.135Z,18.28
2023-09-20T13:10:53.806Z,18.20
2023-09-20T13:13:28.495Z,18.22
2023-09-20T13:15:57.012Z,18.18
2023-09-20T13:18:25.604Z,18.18
2023-09-20T13:20:59.631Z,18.16
2023-09-20T13:23:28.208Z,18.16
2023-09-20T13:25:56.743Z,18.20
2023-09-20T13:28:25.311Z,18.15
2023-09-20T13:30:55.655Z,18.11
2023-09-20T13:33:24.566Z,18.10
2023-09-20T13:35:52.983Z,18.16
2023-09-20T13:38:22.472Z,18.12
2023-09-20T13:40:52.047Z,18.22
2023-09-20T13:43:20.499Z,18.24
2023-09-20T13:45:49.659Z,18.22
2023-09-20T13:48:19.845Z,18.29
2023-09-20T13:50:48.637Z,18.21
2023-09-20T13:53:17.177Z,18.28
2023-09-20T13:55:48.263Z,18.37
2023-09-20T13:58:17.378Z,18.33
2023-09-20T14:00:45.702Z,18.38
2023-09-20T14:03:16.477Z,18.43
2023-09-20T14:05:46.490Z,18.39
2023-09-20T14:08:14.773Z,18.45
2023-09-20T14:10:43.120Z,18.51
2023-09-20T14:13:12.159Z,18.47
2023-09-20T14:15:41.208Z,18.51
2023-09-20T14:18:10.111Z,18.50
2023-09-20T14:20:39.938Z,18.50
2023-09-20T14:23:10.300Z,18.52
2023-09-20T14:25:39.266Z,18.50
2023-09-20T14:28:08.417Z,18.57
2023-09-20T14:30:39.299Z,18.58
2023-09-20T14:33:09.857Z,18.50
2023-09-20T14:35:39.110Z,18.53
2023-09-20T14:38:08.375Z,18.63
2023-09-20T14:40:38.888Z,18.65
2023-09-20T14:43:09.715Z,18.73
2023-09-20T14:45:38.245Z,18.76
2023-09-20T14:48:11.939Z,18.77
2023-09-20T14:50:40.457Z,18.79
2023-09-20T14:53:10.133Z,18.76
2023-09-20T14:55:39.838Z,18.81
2023-09-20T14:58:08.323Z,18.76
2023-09-20T15:00:36.897Z,18.77
2023-09-20T15:03:05.826Z,18.81
2023-09-20T15:05:39.048Z,18.80
2023-09-20T15:08:09.796Z,18.83
2023-09-20T15:10:43.872Z,18.83
2023-09-20T15:13:12.254Z,18.82
2023-09-20T15:15:40.527Z,18.80
2023-09-20T15:18:09.659Z,18.82
2023-09-20T15:20:38.477Z,18.84
2023-09-20T15:23:07.288Z,18.81
2023-09-20T15:25:35.925Z,18.74
2023-09-20T15:28:06.186Z,18.68
2023-09-20T15:30:38.279Z,18.61
2023-09-20T15:33:09.924Z,18.65
2023-09-20T15:35:38.283Z,18.63
2023-09-20T15:38:09.346Z,18.62
2023-09-20T15:40:38.102Z,18.61
2023-09-20T15:43:09.273Z,18.64
2023-09-20T15:45:37.625Z,18.60
2023-09-20T15:48:06.514Z,18.52
2023-09-20T15:50:38.496Z,18.61
2023-09-20T15:53:07.114Z,18.62
2023-09-20T15:55:36.659Z,18.64
2023-09-20T15:58:05.137Z,18.56
2023-09-20T16:00:34.825Z,18.36
2023-09-20T16:03:04.604Z,18.16
2023-09-20T16:05:33.078Z,18.07
2023-09-20T16:08:01.551Z,17.95
2023-09-20T16:10:31.023Z,17.84
2023-09-20T16:12:59.438Z,17.81
2023-09-20T16:15:27.953Z,17.71
2023-09-20T16:17:57.674Z,17.66
2023-09-20T16:20:26.738Z,17.61
2023-09-20T16:22:56.313Z,17.54
2023-09-20T16:25:24.714Z,17.65
2023-09-20T16:27:53.356Z,17.74
2023-09-20T16:30:22.448Z,17.81
2023-09-20T16:32:52.304Z,17.79
2023-09-20T16:35:22.974Z,17.76
2023-09-20T16:37:52.218Z,17.78
2023-09-20T16:40:20.884Z,17.82
2023-09-20T16:42:50.103Z,17.88
2023-09-20T16:45:18.866Z,17.96
2023-09-20T16:47:47.489Z,18.05
2023-09-20T16:50:16.321Z,18.11
2023-09-20T16:52:47.059Z,18.14
2023-09-20T16:55:16.917Z,18.17
2023-09-20T16:57:47.764Z,18.10
2023-09-20T17:00:16.882Z,18.11
2023-09-20T17:02:45.233Z,18.14
2023-09-20T17:05:16.748Z,18.17
2023-09-20T17:07:48.764Z,18.19
2023-09-20T17:10:18.113Z,18.18
2023-09-20T17:12:46.899Z,18.20
2023-09-20T17:15:17.270Z,18.18
2023-09-20T17:17:47.849Z,18.12
2023-09-20T17:20:16.911Z,18.09
2023-09-20T17:22:46.648Z,18.07
2023-09-20T17:25:15.575Z,18.02
2023-09-20T17:27:46.676Z,18.01
2023-09-20T17:30:18.888Z,17.97
2023-09-20T17:32:49.500Z,17.94
2023-09-20T17:35:18.441Z,17.92
2023-09-20T17:37:48.130Z,17.93
2023-09-20T17:40:17.832Z,17.89
2023-09-20T17:42:46.609Z,17.86
2023-09-20T17:45:16.462Z,17.87
2023-09-20T17:47:45.737Z,17.90
2023-09-20T17:50:15.229Z,17.93
2023-09-20T17:52:43.813Z,17.93
2023-09-20T17:55:13.760Z,17.89
2023-09-20T17:57:43.855Z,17.85
2023-09-20T18:00:15.331Z,17.87
2023-09-20T18:02:44.043Z,17.84
2023-09-20T18:05:12.602Z,17.85
2023-09-20T18:07:40.877Z,17.82
2023-09-20T18:10:09.552Z,17.78
2023-09-20T18:12:39.552Z,17.77
2023-09-20T18:15:09.481Z,17.77
2023-09-20T18:17:41.550Z,17.78
2023-09-20T18:20:10.876Z,17.61
2023-09-20T18:22:40.441Z,17.72
2023-09-20T18:25:11.096Z,17.76
2023-09-20T18:27:41.478Z,17.79
2023-09-20T18:30:11.860Z,17.81
2023-09-20T18:32:40.317Z,17.79
2023-09-20T18:35:09.297Z,17.79
2023-09-20T18:37:37.876Z,17.78
2023-09-20T18:40:09.532Z,17.79
2023-09-20T18:42:38.358Z,17.78
2023-09-20T18:45:10.912Z,17.80
2023-09-20T18:47:44.192Z,17.79
2023-09-20T18:50:14.936Z,17.79
2023-09-20T18:52:44.829Z,17.79
2023-09-20T18:55:17.162Z,17.78
2023-09-20T18:57:51.936Z,17.77
2023-09-20T19:00:23.457Z,17.75
2023-09-20T19:02:52.406Z,17.71
2023-09-20T19:05:20.772Z,17.72
2023-09-20T19:07:51.514Z,17.73
2023-09-20T19:10:20.294Z,17.66
2023-09-20T19:12:48.525Z,17.64
2023-09-20T19:15:17.021Z,17.58
2023-09-20T19:17:47.928Z,17.59
2023-09-20T19:20:19.341Z,17.61
2023-09-20T19:22:48.333Z,17.62
2023-09-20T19:25:18.855Z,17.62
2023-09-20T19:27:48.815Z,17.58
2023-09-20T19:30:19.829Z,17.57
2023-09-20T19:32:50.173Z,17.47
2023-09-20T19:35:18.856Z,17.38
2023-09-20T19:37:47.286Z,17.34
2023-09-20T19:40:21.067Z,17.38
2023-09-20T19:42:51.716Z,17.42
2023-09-20T19:45:20.943Z,17.44
2023-09-20T19:47:51.755Z,17.41
2023-09-20T19:50:23.045Z,17.42
2023-09-20T19:52:54.432Z,17.39
2023-09-20T19:55:26.127Z,17.37
2023-09-20T19:57:56.433Z,17.34
2023-09-20T20:00:29.045Z,17.32
2023-09-20T20:03:01.671Z,17.33
2023-09-20T20:05:30.840Z,17.38
2023-09-20T20:08:04.987Z,17.42
2023-09-20T20:10:33.648Z,17.41
2023-09-20T20:13:01.789Z,17.41
2023-09-20T20:15:31.971Z,17.42
2023-09-20T20:18:03.425Z,17.42
2023-09-20T20:20:34.478Z,17.40
2023-09-20T20:23:06.590Z,17.41
2023-09-20T20:25:40.067Z,17.38
2023-09-20T20:28:13.737Z,17.39
2023-09-20T20:30:42.729Z,17.40
2023-09-20T20:33:13.164Z,17.43
2023-09-20T20:35:42.018Z,17.46
2023-09-20T20:38:11.522Z,17.47
2023-09-20T20:40:43.535Z,17.46
2023-09-20T20:43:12.008Z,17.42
2023-09-20T20:45:40.633Z,17.42
2023-09-20T20:48:09.388Z,17.44
2023-09-20T20:50:42.515Z,17.43
2023-09-20T20:53:16.469Z,17.40
2023-09-20T20:55:45.203Z,17.36
2023-09-20T20:58:14.558Z,17.34
2023-09-20T21:00:51.840Z,17.32
2023-09-20T21:03:21.471Z,17.30
2023-09-20T21:05:53.812Z,17.28
2023-09-20T21:08:22.713Z,17.24
2023-09-20T21:10:52.369Z,17.20
2023-09-20T21:13:21.632Z,17.18
2023-09-20T21:15:49.939Z,17.19
2023-09-20T21:18:19.137Z,17.20
2023-09-20T21:20:51.393Z,17.22
2023-09-20T21:23:21.620Z,17.21
2023-09-20T21:25:50.854Z,17.19
2023-09-20T21:28:19.244Z,17.17
2023-09-20T21:30:49.823Z,17.13
2023-09-20T21:33:18.312Z,17.12
2023-09-20T21:35:47.374Z,17.10
2023-09-20T21:38:15.612Z,17.06
2023-09-20T21:40:45.497Z,17.01
2023-09-20T21:43:14.811Z,16.96
2023-09-20T21:45:43.686Z,16.92
2023-09-20T21:48:12.255Z,16.88
2023-09-20T21:50:41.704Z,16.85
2023-09-20T21:53:12.639Z,16.81
2023-09-20T21:55:42.506Z,16.79
2023-09-20T21:58:12.315Z,16.77
2023-09-20T22:00:42.105Z,16.77
2023-09-20T22:03:10.545Z,16.77
2023-09-20T22:05:39.008Z,16.79
2023-09-20T22:08:10.563Z,16.81
2023-09-20T22:10:51.774Z,16.78
2023-09-20T22:13:23.044Z,16.78
2023-09-20T22:15:53.888Z,16.76
2023-09-20T22:18:25.871Z,16.72
2023-09-20T22:21:02.596Z,16.71
2023-09-20T22:23:31.724Z,16.68
2023-09-20T22:26:00.001Z,16.68
2023-09-20T22:28:29.827Z,16.68
2023-09-20T22:30:58.189Z,16.66
2023-09-20T22:33:26.750Z,16.63
2023-09-20T22:36:08.185Z,16.63
2023-09-20T22:38:42.662Z,16.59
2023-09-20T22:41:11.258Z,16.58
2023-09-20T22:43:40.901Z,16.54
2023-09-20T22:46:09.818Z,16.52
2023-09-20T22:48:40.368Z,16.53
2023-09-20T22:51:09.722Z,16.52
2023-09-20T22:53:39.098Z,16.50
2023-09-20T22:56:08.217Z,16.48
2023-09-20T22:58:36.835Z,16.47
2023-09-20T23:01:07.893Z,16.44
2023-09-20T23:03:40.414Z,16.40
2023-09-20T23:06:09.020Z,16.38
2023-09-20T23:08:37.242Z,16.38
2023-09-20T23:11:11.035Z,16.36
2023-09-20T23:13:43.694Z,16.35
2023-09-20T23:16:23.309Z,16.34
2023-09-20T23:18:53.427Z,16.31
2023-09-20T23:21:21.848Z,16.31
2023-09-20T23:23:50.350Z,16.31
2023-09-20T23:26:21.378Z,16.28
2023-09-20T23:28:51.092Z,16.24
2023-09-20T23:31:21.884Z,16.23
2023-09-20T23:33:50.671Z,16.22
2023-09-20T23:36:19.281Z,16.20
2023-09-20T23:38:50.073Z,16.20
2023-09-20T23:41:19.728Z,16.18
2023-09-20T23:43:51.598Z,16.18
2023-09-20T23:46:23.566Z,16.15
2023-09-20T23:48:54.144Z,16.11
2023-09-20T23:51:23.275Z,16.09
2023-09-20T23:53:53.777Z,16.05
2023-09-20T23:56:23.800Z,15.99
2023-09-20T23:58:52.903Z,15.97
